createdAt,value
2023-02-01T00:04:00.638Z,6.78
2023-02-01T00:08:03.453Z,8.18
2023-02-01T00:12:06.565Z,6.72
2023-02-01T00:16:13.204Z,5.18
2023-02-01T00:20:16.203Z,7.22
2023-02-01T00:24:18.976Z,5.45
2023-02-01T00:28:21.913Z,7.25
2023-02-01T00:32:26.106Z,6.40
2023-02-01T00:36:29.291Z,5.47
2023-02-01T00:40:32.727Z,5.63
2023-02-01T00:44:36.273Z,6.53
2023-02-01T00:48:40.962Z,9.23
2023-02-01T00:52:43.778Z,5.07
2023-02-01T00:56:46.566Z,7.50
2023-02-01T01:00:50.466Z,6.10
2023-02-01T01:04:54.916Z,9.93
2023-02-01T01:08:59.665Z,7.45
2023-02-01T01:13:02.467Z,8.50
2023-02-01T01:17:05.307Z,8.68
2023-02-01T01:21:10.456Z,7.60
2023-02-01T01:25:13.287Z,6.57
2023-02-01T01:29:16.026Z,9.02
2023-02-01T01:33:18.868Z,8.63
2023-02-01T01:37:23.042Z,9.07
2023-02-01T01:41:27.585Z,8.65
2023-02-01T01:45:33.949Z,9.40
2023-02-01T01:49:36.724Z,9.55
2023-02-01T01:53:47.123Z,10.65
2023-02-01T01:57:55.692Z,11.23
2023-02-01T02:01:58.547Z,7.28
2023-02-01T02:06:02.760Z,13.98
2023-02-01T02:10:11.625Z,9.73
2023-02-01T02:14:17.547Z,9.93
2023-02-01T02:18:26.299Z,9.68
2023-02-01T02:23:07.560Z,11.07
2023-02-01T02:27:25.548Z,9.10
2023-02-01T02:31:56.665Z,10.85
2023-02-01T02:36:03.653Z,9.90
2023-02-01T02:40:14.734Z,12.63
2023-02-01T02:44:42.421Z,12.75
2023-02-01T02:48:51.040Z,7.97
2023-02-01T02:53:17.958Z,7.85
2023-02-01T02:57:42.246Z,7.97
2023-02-01T03:02:02.961Z,7.50
2023-02-01T03:06:06.658Z,8.10
2023-02-01T03:10:18.732Z,11.45
2023-02-01T03:14:24.587Z,6.88
2023-02-01T03:18:34.479Z,7.38
2023-02-01T03:22:40.348Z,10.25
2023-02-01T03:26:50.435Z,11.07
2023-02-01T03:30:53.657Z,8.43
2023-02-01T03:34:57.718Z,9.00
2023-02-01T03:39:06.164Z,9.13
2023-02-01T03:43:17.587Z,6.82
2023-02-01T03:47:23.710Z,6.85
2023-02-01T03:51:28.376Z,8.55
2023-02-01T03:55:32.336Z,7.95
2023-02-01T03:59:39.570Z,7.05
2023-02-01T04:03:42.463Z,10.18
2023-02-01T04:07:46.264Z,10.02
2023-02-01T04:11:49.055Z,7.65
2023-02-01T04:15:53.223Z,9.55
2023-02-01T04:19:56.017Z,8.73
2023-02-01T04:23:58.797Z,7.40
2023-02-01T04:28:01.582Z,8.13
2023-02-01T04:32:06.463Z,8.95
2023-02-01T04:36:09.567Z,9.45
2023-02-01T04:40:13.456Z,11.32
2023-02-01T04:44:17.938Z,7.57
2023-02-01T04:48:24.937Z,15.18
2023-02-01T04:52:28.368Z,6.68
2023-02-01T04:56:31.189Z,8.30
2023-02-01T05:00:34.125Z,18.05
2023-02-01T05:04:38.288Z,9.40
2023-02-01T05:08:41.108Z,11.75
2023-02-01T05:13:01.914Z,8.98
2023-02-01T05:17:04.791Z,8.75
2023-02-01T05:21:09.003Z,9.45
2023-02-01T05:25:11.775Z,9.75
2023-02-01T05:29:15.795Z,8.23
2023-02-01T05:33:18.547Z,7.85
2023-02-01T05:37:22.708Z,9.02
2023-02-01T05:41:25.845Z,8.40
2023-02-01T05:45:28.618Z,10.13
2023-02-01T05:49:31.377Z,11.55
2023-02-01T05:53:35.459Z,8.85
2023-02-01T05:57:38.193Z,7.55
2023-02-01T06:01:40.920Z,9.20
2023-02-01T06:05:46.066Z,9.90
2023-02-01T06:09:50.217Z,10.40
2023-02-01T06:13:53.020Z,8.15
2023-02-01T06:17:55.847Z,7.35
2023-02-01T06:21:58.665Z,10.73
2023-02-01T06:26:05.180Z,10.18
2023-02-01T06:30:10.006Z,9.85
2023-02-01T06:34:13.487Z,7.70
2023-02-01T06:38:16.423Z,8.15
2023-02-01T06:42:20.614Z,9.55
2023-02-01T06:46:23.462Z,8.73
2023-02-01T06:50:26.301Z,8.60
2023-02-01T06:54:29.223Z,8.52
2023-02-01T06:58:35.010Z,6.50
2023-02-01T07:02:37.923Z,4.63
2023-02-01T07:06:41.101Z,11.07
2023-02-01T07:10:43.905Z,11.85
2023-02-01T07:14:48.027Z,13.60
2023-02-01T07:18:52.508Z,6.75
2023-02-01T07:22:58.196Z,5.10
2023-02-01T07:27:00.992Z,5.10
2023-02-01T07:31:10.475Z,4.32
2023-02-01T07:35:13.257Z,9.93
2023-02-01T07:39:16.047Z,4.70
2023-02-01T07:43:18.864Z,9.15
2023-02-01T07:47:23.054Z,6.78
2023-02-01T07:51:25.824Z,23.30
2023-02-01T07:55:29.107Z,19.38
2023-02-01T07:59:31.873Z,12.75
2023-02-01T08:03:36.052Z,15.27
2023-02-01T08:07:38.878Z,14.60
2023-02-01T08:11:41.700Z,7.05
2023-02-01T08:15:44.468Z,4.25
2023-02-01T08:19:48.581Z,8.07
2023-02-01T08:23:51.414Z,4.38
2023-02-01T08:27:55.344Z,3.90
2023-02-01T08:31:58.167Z,4.72
2023-02-01T08:36:04.938Z,4.57
2023-02-01T08:40:09.045Z,4.03
2023-02-01T08:44:11.858Z,5.43
2023-02-01T08:48:14.755Z,4.65
2023-02-01T08:52:18.902Z,4.68
2023-02-01T08:56:22.198Z,4.28
2023-02-01T09:00:25.743Z,4.95
2023-02-01T09:04:28.762Z,5.45
2023-02-01T09:08:33.156Z,3.45
2023-02-01T09:12:37.047Z,4.35
2023-02-01T09:16:39.845Z,7.40
2023-02-01T09:20:42.615Z,3.38
2023-02-01T09:24:46.897Z,3.17
2023-02-01T09:28:49.697Z,10.25
2023-02-01T09:32:52.526Z,3.63
2023-02-01T09:36:55.317Z,5.10
2023-02-01T09:41:00.443Z,3.53
2023-02-01T09:45:17.468Z,5.78
2023-02-01T09:49:24.322Z,4.50
2023-02-01T09:53:31.678Z,5.38
2023-02-01T09:57:46.541Z,2.80
2023-02-01T10:01:49.397Z,3.35
2023-02-01T10:06:27.545Z,5.35
2023-02-01T10:10:34.759Z,3.72
2023-02-01T10:14:56.696Z,5.32
2023-02-01T10:19:26.995Z,5.10
2023-02-01T10:23:58.947Z,4.13
2023-02-01T10:28:05.283Z,6.40
2023-02-01T10:32:23.650Z,10.60
2023-02-01T10:36:32.896Z,2.75
2023-02-01T10:40:36.222Z,4.57
2023-02-01T10:44:44.309Z,5.60
2023-02-01T10:48:50.636Z,3.70
2023-02-01T10:56:58.064Z,9.25
2023-02-01T11:01:04.483Z,9.43
2023-02-01T11:05:13.131Z,9.13
2023-02-01T11:09:22.544Z,5.22
2023-02-01T11:13:31.824Z,6.70
2023-02-01T11:17:37.634Z,5.05
2023-02-01T11:21:45.770Z,9.90
2023-02-01T11:25:55.054Z,6.15
2023-02-01T11:30:04.939Z,8.10
2023-02-01T11:34:13.147Z,4.78
2023-02-01T11:38:28.444Z,8.68
2023-02-01T11:42:31.864Z,5.50
2023-02-01T11:46:36.695Z,15.48
2023-02-01T11:50:47.260Z,11.15
2023-02-01T11:55:10.081Z,7.32
2023-02-01T11:59:30.913Z,7.15
2023-02-01T12:04:16.403Z,11.10
2023-02-01T12:08:44.884Z,5.57
2023-02-01T12:12:58.826Z,5.70
2023-02-01T12:17:19.864Z,5.40
2023-02-01T12:21:39.005Z,9.43
2023-02-01T12:25:57.686Z,11.40
2023-02-01T12:30:19.347Z,6.72
2023-02-01T12:34:43.296Z,7.93
2023-02-01T12:38:55.581Z,11.25
2023-02-01T12:43:04.080Z,10.70
2023-02-01T12:47:16.299Z,8.70
2023-02-01T12:51:22.204Z,9.25
2023-02-01T12:55:26.623Z,11.85
2023-02-01T12:59:37.315Z,13.60
2023-02-01T13:03:46.395Z,12.27
2023-02-01T13:07:54.801Z,8.30
2023-02-01T13:12:14.442Z,10.52
2023-02-01T13:16:25.618Z,5.45
2023-02-01T13:20:34.289Z,7.63
2023-02-01T13:24:43.344Z,8.85
2023-02-01T13:28:50.042Z,8.05
2023-02-01T13:33:53.391Z,9.60
2023-02-01T13:38:16.672Z,7.60
2023-02-01T13:42:23.635Z,5.18
2023-02-01T13:46:26.847Z,7.38
2023-02-01T13:50:34.957Z,4.10
2023-02-01T13:54:41.629Z,4.00
2023-02-01T13:58:45.881Z,4.22
2023-02-01T14:03:08.628Z,4.50
2023-02-01T14:07:20.577Z,6.28
2023-02-01T14:11:45.608Z,5.80
2023-02-01T14:16:14.874Z,5.63
2023-02-01T14:20:54.047Z,4.75
2023-02-01T14:24:59.444Z,4.18
2023-02-01T14:29:23.600Z,7.27
2023-02-01T14:33:28.949Z,6.47
2023-02-01T14:37:34.560Z,8.07
2023-02-01T14:41:37.719Z,6.30
2023-02-01T14:45:53.068Z,9.00
2023-02-01T14:50:00.228Z,9.63
2023-02-01T14:54:03.585Z,3.72
2023-02-01T14:58:12.100Z,5.47
2023-02-01T15:02:24.477Z,6.28
2023-02-01T15:06:37.979Z,7.25
2023-02-01T15:10:44.688Z,6.40
2023-02-01T15:14:50.483Z,4.50
2023-02-01T15:19:10.927Z,5.95
2023-02-01T15:23:19.432Z,4.10
2023-02-01T15:27:22.623Z,7.63
2023-02-01T15:31:45.971Z,4.53
2023-02-01T15:35:51.519Z,5.15
2023-02-01T15:40:05.977Z,11.18
2023-02-01T15:44:19.746Z,7.35
2023-02-01T15:48:26.389Z,5.93
2023-02-01T15:52:39.841Z,9.48
2023-02-01T15:56:43.679Z,8.00
2023-02-01T16:00:48.153Z,6.00
2023-02-01T16:04:51.893Z,6.00
2023-02-01T16:09:01.986Z,8.85
2023-02-01T16:13:05.889Z,9.30
2023-02-01T16:17:10.676Z,7.18
2023-02-01T16:21:13.762Z,4.63
2023-02-01T16:25:18.044Z,6.60
2023-02-01T16:29:22.555Z,5.18
2023-02-01T16:33:25.748Z,4.70
2023-02-01T16:37:30.323Z,10.63
2023-02-01T16:41:34.457Z,12.93
2023-02-01T16:45:39.725Z,7.65
2023-02-01T16:49:44.377Z,5.90
2023-02-01T16:53:54.563Z,9.25
2023-02-01T16:57:59.042Z,10.30
2023-02-01T17:02:01.749Z,81.47
2023-02-01T17:06:04.809Z,127.60
2023-02-01T17:10:08.391Z,66.75
2023-02-01T17:14:17.837Z,92.72
2023-02-01T17:18:20.897Z,27.55
2023-02-01T17:22:24.688Z,21.80
2023-02-01T17:26:27.454Z,22.95
2023-02-01T17:30:31.943Z,9.50
2023-02-01T17:34:34.758Z,13.13
2023-02-01T17:38:37.638Z,13.13
2023-02-01T17:42:40.732Z,22.08
2023-02-01T17:46:45.165Z,21.58
2023-02-01T17:50:50.164Z,20.75
2023-02-01T17:54:54.068Z,14.98
2023-02-01T17:58:57.019Z,10.63
2023-02-01T18:03:01.758Z,11.25
2023-02-01T18:07:04.555Z,14.02
2023-02-01T18:11:10.970Z,9.05
2023-02-01T18:15:19.896Z,9.40
2023-02-01T18:19:24.018Z,6.20
2023-02-01T18:23:26.858Z,3.25
2023-02-01T18:27:29.720Z,10.88
2023-02-01T18:31:34.792Z,10.18
2023-02-01T18:35:38.993Z,7.30
2023-02-01T18:39:41.781Z,5.13
2023-02-01T18:43:45.096Z,6.40
2023-02-01T18:47:47.879Z,9.40
2023-02-01T18:51:53.011Z,7.75
2023-02-01T18:55:56.391Z,8.75
2023-02-01T18:59:59.172Z,7.88
2023-02-01T19:04:08.410Z,8.90
2023-02-01T19:08:24.400Z,10.45
2023-02-01T19:12:27.209Z,13.80
2023-02-01T19:16:30.009Z,13.80
2023-02-01T19:20:32.799Z,4.28
2023-02-01T19:24:36.989Z,6.32
2023-02-01T19:28:39.919Z,7.25
2023-02-01T19:32:42.754Z,6.80
2023-02-01T19:36:45.522Z,6.97
2023-02-01T19:40:51.192Z,18.15
2023-02-01T19:44:53.965Z,8.38
2023-02-01T19:48:56.852Z,10.40
2023-02-01T19:52:59.633Z,15.55
2023-02-01T19:57:04.024Z,8.23
2023-02-01T20:01:07.193Z,7.82
2023-02-01T20:05:11.754Z,5.13
2023-02-01T20:09:14.721Z,5.25
2023-02-01T20:13:19.190Z,5.95
2023-02-01T20:17:22.147Z,12.05
2023-02-01T20:21:24.937Z,6.85
2023-02-01T20:25:27.705Z,9.18
2023-02-01T20:29:33.200Z,7.47
2023-02-01T20:33:35.985Z,11.77
2023-02-01T20:37:38.781Z,9.35
2023-02-01T20:41:41.586Z,4.28
2023-02-01T20:45:46.236Z,8.95
2023-02-01T20:49:49.036Z,14.18
2023-02-01T20:53:54.250Z,12.60
2023-02-01T20:57:58.159Z,11.13
2023-02-01T21:02:02.914Z,9.73
2023-02-01T21:06:06.677Z,10.57
2023-02-01T21:10:11.596Z,5.50
2023-02-01T21:14:14.746Z,9.50
2023-02-01T21:18:19.255Z,4.63
2023-02-01T21:22:22.178Z,12.68
2023-02-01T21:26:26.985Z,12.15
2023-02-01T21:30:29.764Z,9.15
2023-02-01T21:34:33.981Z,9.98
2023-02-01T21:38:36.767Z,7.40
2023-02-01T21:42:41.573Z,16.13
2023-02-01T21:46:45.225Z,11.43
2023-02-01T21:50:49.914Z,6.70
2023-02-01T21:54:59.196Z,3.65
2023-02-01T21:59:01.954Z,8.85
2023-02-01T22:03:04.777Z,7.80
2023-02-01T22:07:08.947Z,5.38
2023-02-01T22:11:11.728Z,7.20
2023-02-01T22:15:14.502Z,6.25
2023-02-01T22:19:17.593Z,7.70
2023-02-01T22:23:21.723Z,11.15
2023-02-01T22:28:29.406Z,6.32
2023-02-01T22:31:47.962Z,9.63
2023-02-01T22:35:51.189Z,11.82
2023-02-01T22:39:58.117Z,8.48
2023-02-01T22:44:01.445Z,5.07
2023-02-01T22:48:04.615Z,8.90
2023-02-01T22:52:07.350Z,9.55
2023-02-01T22:56:13.190Z,7.57
2023-02-01T23:00:16.407Z,9.50
2023-02-01T23:04:21.324Z,9.95
2023-02-01T23:08:24.103Z,15.55
2023-02-01T23:12:28.244Z,3.53
2023-02-01T23:16:31.058Z,7.35
2023-02-01T23:20:33.823Z,7.20
2023-02-01T23:24:36.654Z,11.00
2023-02-01T23:28:40.857Z,8.75
2023-02-01T23:32:43.675Z,12.32
2023-02-01T23:36:46.457Z,8.48
2023-02-01T23:40:51.274Z,3.47
2023-02-01T23:44:55.494Z,8.50
2023-02-01T23:48:59.011Z,5.13
2023-02-01T23:53:01.837Z,8.50
2023-02-01T23:57:04.683Z,8.75
